CNH9 weather

Public forecast

Using degrees Celsius for public forecast. Weather courtesy of forecast.io.

Closest aviation weather report (METAR) to Nanaimo (West Coast) Heliport

Closest report is Nanaimo Airport, 9.1 nm (16.8 km) SSE. Retrieved 2020/08/13 16:00 UTC (39 minutes ago):

CYCD 131600Z 00000KT 25SM FEW024 SCT230 16/11 A3012 RMK SC1CI2 SLP203 DENSITY ALT 100FT

Closest aviation forecast (TAF) to Nanaimo (West Coast) Heliport

Closest forecast is Nanaimo Airport, 9.1 nm (16.8 km) SSE. Retrieved 2020/08/13 15:39 UTC (1 hour ago):

TAF CYCD 131438Z 1315/1403 VRB03KT P6SM FEW025 FEW050 SCT140 FM131800 06005KT P6SM SCT040 BKN100 FM132100 09007KT P6SM FEW040 SCT100 RMK NXT FCST BY 131800Z